createdAt,value
2018-08-17T00:00:56.400Z,2.27
2018-08-17T00:03:25.481Z,2.50
2018-08-17T00:05:54.618Z,2.40
2018-08-17T00:08:23.721Z,2.40
2018-08-17T00:10:52.913Z,2.60
2018-08-17T00:13:21.994Z,2.07
2018-08-17T00:15:51.048Z,2.27
2018-08-17T00:18:20.249Z,2.50
2018-08-17T00:20:49.309Z,2.67
2018-08-17T00:23:18.275Z,2.30
2018-08-17T00:25:47.290Z,2.73
2018-08-17T00:28:16.371Z,2.30
2018-08-17T00:30:45.356Z,2.63
2018-08-17T00:33:14.266Z,2.33
2018-08-17T00:35:43.223Z,2.10
2018-08-17T00:38:12.246Z,2.57
2018-08-17T00:40:41.191Z,2.67
2018-08-17T00:43:10.217Z,2.30
2018-08-17T00:45:39.377Z,2.30
2018-08-17T00:48:08.456Z,2.43
2018-08-17T00:50:37.422Z,2.70
2018-08-17T00:53:06.458Z,2.73
2018-08-17T00:55:35.471Z,2.37
2018-08-17T00:58:04.550Z,3.07
2018-08-17T01:00:33.558Z,2.60
2018-08-17T01:03:02.582Z,3.00
2018-08-17T01:05:31.589Z,2.23
2018-08-17T01:08:00.596Z,3.00
2018-08-17T01:10:29.596Z,2.93
2018-08-17T01:12:58.638Z,2.60
2018-08-17T01:15:27.738Z,2.40
2018-08-17T01:17:56.736Z,2.43
2018-08-17T01:20:25.832Z,2.30
2018-08-17T01:22:54.911Z,2.77
2018-08-17T01:25:23.869Z,2.93
2018-08-17T01:27:52.815Z,2.23
2018-08-17T01:30:21.842Z,2.80
2018-08-17T01:32:50.855Z,2.70
2018-08-17T01:35:19.884Z,2.63
2018-08-17T01:37:48.854Z,2.40
2018-08-17T01:40:17.791Z,2.70
2018-08-17T01:42:46.804Z,2.60
2018-08-17T01:45:15.899Z,2.50
2018-08-17T01:47:45.328Z,2.47
2018-08-17T01:50:14.408Z,2.50
2018-08-17T01:52:43.414Z,2.73
2018-08-17T01:55:12.674Z,2.60
2018-08-17T01:57:41.694Z,2.40
2018-08-17T02:00:11.926Z,2.50
2018-08-17T02:02:42.735Z,2.50
2018-08-17T02:05:12.354Z,2.57
2018-08-17T02:07:41.931Z,2.60
2018-08-17T02:10:12.135Z,2.40
2018-08-17T02:12:41.105Z,2.47
2018-08-17T02:15:10.161Z,2.80
2018-08-17T02:17:39.314Z,2.90
2018-08-17T02:20:08.383Z,2.80
2018-08-17T02:22:37.367Z,2.83
2018-08-17T02:25:06.449Z,2.77
2018-08-17T02:27:35.444Z,2.63
2018-08-17T02:30:05.080Z,2.23
2018-08-17T02:32:34.058Z,2.77
2018-08-17T02:35:03.058Z,2.50
2018-08-17T02:37:32.085Z,2.60
2018-08-17T02:40:01.066Z,2.40
2018-08-17T02:42:29.982Z,2.47
2018-08-17T02:44:58.915Z,2.70
2018-08-17T02:47:27.922Z,2.50
2018-08-17T02:49:56.994Z,2.50
2018-08-17T02:52:26.034Z,2.40
2018-08-17T02:54:55.077Z,2.50
2018-08-17T02:57:24.148Z,2.80
2018-08-17T02:59:53.170Z,2.80
2018-08-17T03:02:22.203Z,2.50
2018-08-17T03:04:51.293Z,2.50
2018-08-17T03:07:20.346Z,2.70
2018-08-17T03:09:49.420Z,2.63
2018-08-17T03:12:18.526Z,2.70
2018-08-17T03:14:47.563Z,3.13
2018-08-17T03:17:16.601Z,2.70
2018-08-17T03:19:45.607Z,2.90
2018-08-17T03:22:14.594Z,2.90
2018-08-17T03:24:43.602Z,2.80
2018-08-17T03:27:12.623Z,2.60
2018-08-17T03:29:41.664Z,3.17
2018-08-17T03:32:10.719Z,2.87
2018-08-17T03:34:39.653Z,2.80
2018-08-17T03:37:08.737Z,2.60
2018-08-17T03:39:37.742Z,2.80
2018-08-17T03:42:06.806Z,2.60
2018-08-17T03:44:35.888Z,3.27
2018-08-17T03:47:04.866Z,3.63
2018-08-17T03:49:33.852Z,2.70
2018-08-17T03:52:02.898Z,2.73
2018-08-17T03:54:31.908Z,3.37
2018-08-17T03:57:00.957Z,3.10
2018-08-17T03:59:30.018Z,2.80
2018-08-17T04:01:59.153Z,3.00
2018-08-17T04:04:28.191Z,3.17
2018-08-17T04:06:57.235Z,3.00
2018-08-17T04:09:26.275Z,2.47
2018-08-17T04:11:55.267Z,2.80
2018-08-17T04:14:24.404Z,3.50
2018-08-17T04:16:53.415Z,3.20
2018-08-17T04:19:22.333Z,3.13
2018-08-17T04:21:51.283Z,2.97
2018-08-17T04:24:20.224Z,3.20
2018-08-17T04:26:49.248Z,2.50
2018-08-17T04:29:18.190Z,3.70
2018-08-17T04:31:47.224Z,2.90
2018-08-17T04:34:16.201Z,3.40
2018-08-17T04:36:45.173Z,3.20
2018-08-17T04:39:14.188Z,3.33
2018-08-17T04:41:43.186Z,2.63
2018-08-17T04:44:12.224Z,3.07
2018-08-17T04:46:41.207Z,3.30
2018-08-17T04:49:10.239Z,3.10
2018-08-17T04:51:39.283Z,2.97
2018-08-17T04:54:08.311Z,3.20
2018-08-17T04:56:37.388Z,3.30
2018-08-17T04:59:06.414Z,3.40
2018-08-17T05:01:35.384Z,3.23
2018-08-17T05:04:04.397Z,3.30
2018-08-17T05:06:33.474Z,3.23
2018-08-17T05:09:02.525Z,3.27
2018-08-17T05:11:31.502Z,3.50
2018-08-17T05:14:00.528Z,3.90
2018-08-17T05:16:29.513Z,3.50
2018-08-17T05:18:58.519Z,3.47
2018-08-17T05:21:27.537Z,3.63
2018-08-17T05:23:56.440Z,3.90
2018-08-17T05:26:25.621Z,4.33
2018-08-17T05:28:54.557Z,4.53
2018-08-17T05:31:23.635Z,3.90
2018-08-17T05:33:52.706Z,4.23
2018-08-17T05:36:21.699Z,4.40
2018-08-17T05:38:50.763Z,4.53
2018-08-17T05:41:19.658Z,4.43
2018-08-17T05:43:48.674Z,4.87
2018-08-17T05:46:17.706Z,4.83
2018-08-17T05:48:46.683Z,5.03
2018-08-17T05:51:15.754Z,4.53
2018-08-17T05:53:44.792Z,4.33
2018-08-17T05:56:13.822Z,5.47
2018-08-17T05:58:42.896Z,4.20
2018-08-17T06:01:12.005Z,4.67
2018-08-17T06:03:41.342Z,4.90
2018-08-17T06:06:11.477Z,3.80
2018-08-17T06:08:40.719Z,4.63
2018-08-17T06:11:10.359Z,4.60
2018-08-17T06:13:42.201Z,5.03
2018-08-17T06:16:11.491Z,5.20
2018-08-17T06:18:41.202Z,4.90
2018-08-17T06:21:10.412Z,4.30
2018-08-17T06:23:39.668Z,4.47
2018-08-17T06:26:08.730Z,4.37
2018-08-17T06:28:37.950Z,4.40
2018-08-17T06:31:07.143Z,3.90
2018-08-17T06:33:36.255Z,4.30
2018-08-17T06:36:05.537Z,4.20
2018-08-17T06:38:34.591Z,4.00
2018-08-17T06:41:03.743Z,3.50
2018-08-17T06:43:32.838Z,3.73
2018-08-17T06:46:01.925Z,3.33
2018-08-17T06:48:31.014Z,3.33
2018-08-17T06:51:00.242Z,3.73
2018-08-17T06:53:29.306Z,3.50
2018-08-17T06:55:58.353Z,3.40
2018-08-17T06:58:27.405Z,3.27
2018-08-17T07:00:56.475Z,3.03
2018-08-17T07:03:25.582Z,3.10
2018-08-17T07:05:54.655Z,3.43
2018-08-17T07:08:23.729Z,2.90
2018-08-17T07:10:52.740Z,2.73
2018-08-17T07:13:21.817Z,2.77
2018-08-17T07:15:50.985Z,2.57
2018-08-17T07:18:20.057Z,2.60
2018-08-17T07:20:49.317Z,2.70
2018-08-17T07:23:18.352Z,2.53
2018-08-17T07:25:47.494Z,2.50
2018-08-17T07:28:16.754Z,2.37
2018-08-17T07:30:51.021Z,2.43
2018-08-17T07:33:20.813Z,2.60
2018-08-17T07:35:50.555Z,2.23
2018-08-17T07:38:20.050Z,2.07
2018-08-17T07:40:49.215Z,2.57
2018-08-17T07:43:18.335Z,2.07
2018-08-17T07:45:47.678Z,2.07
2018-08-17T07:48:16.982Z,2.10
2018-08-17T07:50:51.849Z,2.30
2018-08-17T07:53:21.193Z,2.00
2018-08-17T07:55:50.832Z,2.50
2018-08-17T07:58:19.996Z,2.23
2018-08-17T08:00:52.787Z,1.90
2018-08-17T08:03:23.654Z,1.83
2018-08-17T08:05:53.554Z,2.07
2018-08-17T08:08:25.048Z,2.03
2018-08-17T08:10:54.486Z,1.93
2018-08-17T08:13:23.640Z,2.20
2018-08-17T08:16:00.829Z,2.37
2018-08-17T08:18:30.021Z,2.00
2018-08-17T08:20:59.191Z,2.03
2018-08-17T08:23:29.506Z,2.00
2018-08-17T08:25:59.163Z,1.67
2018-08-17T08:28:28.365Z,2.07
2018-08-17T08:30:57.476Z,1.90
2018-08-17T08:33:26.628Z,1.90
2018-08-17T08:35:55.887Z,1.67
2018-08-17T08:38:25.054Z,1.80
2018-08-17T08:40:54.241Z,1.70
2018-08-17T08:43:23.435Z,2.23
2018-08-17T08:45:52.667Z,1.70
2018-08-17T08:48:21.759Z,1.67
2018-08-17T08:50:50.901Z,1.57
2018-08-17T08:53:20.016Z,1.97
2018-08-17T08:55:49.154Z,1.90
2018-08-17T08:58:18.290Z,2.23
2018-08-17T09:00:47.445Z,1.90
2018-08-17T09:03:16.590Z,1.30
2018-08-17T09:05:45.743Z,2.10
2018-08-17T09:08:14.962Z,1.60
2018-08-17T09:10:44.518Z,1.87
2018-08-17T09:13:13.680Z,1.93
2018-08-17T09:15:42.854Z,1.87
2018-08-17T09:18:12.157Z,2.07
2018-08-17T09:20:41.380Z,1.83
2018-08-17T09:23:10.510Z,2.20
2018-08-17T09:25:39.508Z,2.23
2018-08-17T09:28:08.640Z,1.90
2018-08-17T09:30:37.737Z,2.17
2018-08-17T09:33:06.968Z,1.63
2018-08-17T09:35:36.121Z,1.47
2018-08-17T09:38:05.273Z,1.70
2018-08-17T09:40:34.381Z,1.90
2018-08-17T09:43:03.598Z,1.70
2018-08-17T09:45:32.659Z,1.93
2018-08-17T09:48:01.773Z,1.57
2018-08-17T09:50:30.881Z,1.87
2018-08-17T09:52:59.933Z,1.60
2018-08-17T09:55:29.010Z,1.50
2018-08-17T09:57:58.165Z,1.60
2018-08-17T10:00:32.512Z,1.53
2018-08-17T10:03:08.826Z,1.60
2018-08-17T10:05:38.596Z,1.70
2018-08-17T10:08:13.144Z,1.80
2018-08-17T10:10:43.387Z,1.70
2018-08-17T10:13:12.551Z,1.37
2018-08-17T10:15:41.627Z,1.67
2018-08-17T10:18:11.016Z,1.40
2018-08-17T10:20:40.119Z,1.87
2018-08-17T10:23:24.798Z,1.87
2018-08-17T10:25:53.924Z,1.30
2018-08-17T10:28:22.991Z,1.83
2018-08-17T10:30:53.272Z,1.60
2018-08-17T10:33:22.505Z,1.67
2018-08-17T10:35:58.500Z,1.60
2018-08-17T10:38:29.202Z,1.50
2018-08-17T10:40:59.649Z,1.60
2018-08-17T10:43:30.220Z,1.50
2018-08-17T10:45:59.365Z,1.80
2018-08-17T10:48:29.019Z,1.40
2018-08-17T10:50:58.119Z,1.40
2018-08-17T10:53:31.420Z,1.70
2018-08-17T10:56:00.414Z,1.60
2018-08-17T10:58:32.817Z,1.80
2018-08-17T11:01:01.869Z,1.70
2018-08-17T11:03:30.891Z,1.47
2018-08-17T11:05:59.950Z,1.30
2018-08-17T11:08:29.065Z,1.30
2018-08-17T11:10:58.153Z,1.43
2018-08-17T11:13:27.188Z,1.60
2018-08-17T11:15:56.287Z,1.67
2018-08-17T11:18:25.321Z,1.73
2018-08-17T11:20:55.432Z,1.50
2018-08-17T11:23:24.618Z,1.50
2018-08-17T11:25:53.780Z,1.50
2018-08-17T11:28:22.790Z,1.33
2018-08-17T11:30:51.834Z,1.37
2018-08-17T11:33:26.388Z,1.30
2018-08-17T11:35:56.043Z,1.30
2018-08-17T11:38:25.379Z,1.15
2018-08-17T11:40:54.586Z,1.30
2018-08-17T11:43:23.794Z,1.50
2018-08-17T11:45:52.930Z,1.30
2018-08-17T11:48:27.718Z,1.52
2018-08-17T11:50:57.336Z,1.40
2018-08-17T11:53:26.569Z,1.40
2018-08-17T11:55:55.693Z,1.40
2018-08-17T11:58:24.806Z,1.20
2018-08-17T12:00:53.848Z,1.30
2018-08-17T12:03:23.587Z,1.50
2018-08-17T12:05:53.437Z,1.40
2018-08-17T12:08:26.832Z,1.57
2018-08-17T12:11:03.410Z,1.50
2018-08-17T12:13:32.632Z,1.05
2018-08-17T12:16:03.452Z,1.50
2018-08-17T12:18:37.719Z,1.10
2018-08-17T12:21:11.200Z,1.32
2018-08-17T12:23:42.450Z,1.12
2018-08-17T12:26:11.736Z,1.42
2018-08-17T12:28:41.013Z,1.45
2018-08-17T12:31:10.394Z,1.30
2018-08-17T12:33:39.573Z,1.42
2018-08-17T12:36:08.802Z,1.30
2018-08-17T12:38:37.947Z,1.25
2018-08-17T12:41:07.310Z,1.27
2018-08-17T12:43:38.493Z,1.20
2018-08-17T12:46:07.869Z,1.20
2018-08-17T12:48:37.032Z,1.45
2018-08-17T12:51:07.378Z,1.22
2018-08-17T12:53:36.903Z,1.20
2018-08-17T12:56:06.141Z,1.45
2018-08-17T12:58:35.182Z,1.20
2018-08-17T13:01:04.290Z,1.27
2018-08-17T13:03:33.545Z,1.17
2018-08-17T13:06:02.566Z,1.10
2018-08-17T13:08:31.658Z,1.37
2018-08-17T13:11:00.974Z,1.40
2018-08-17T13:13:30.040Z,1.22
2018-08-17T13:16:06.114Z,1.10
2018-08-17T13:18:36.894Z,1.30
2018-08-17T13:21:06.381Z,1.62
2018-08-17T13:23:35.547Z,1.37
2018-08-17T13:26:04.670Z,1.10
2018-08-17T13:28:33.737Z,1.40
2018-08-17T13:31:02.886Z,1.25
2018-08-17T13:33:32.152Z,1.30
2018-08-17T13:36:01.909Z,1.37
2018-08-17T13:38:30.983Z,1.40
2018-08-17T13:41:00.025Z,1.37
2018-08-17T13:43:29.134Z,1.37
2018-08-17T13:45:58.231Z,1.15
2018-08-17T13:48:27.295Z,1.20
2018-08-17T13:50:56.576Z,1.20
2018-08-17T13:53:25.800Z,1.27
2018-08-17T13:55:55.141Z,1.20
2018-08-17T13:58:24.332Z,1.27
2018-08-17T14:00:53.530Z,1.15
2018-08-17T14:03:22.661Z,1.30
2018-08-17T14:05:51.791Z,1.45
2018-08-17T14:08:20.874Z,1.22
2018-08-17T14:10:49.941Z,1.40
2018-08-17T14:13:19.035Z,1.07
2018-08-17T14:15:48.191Z,1.30
2018-08-17T14:18:17.266Z,1.37
2018-08-17T14:20:46.414Z,1.25
2018-08-17T14:23:15.482Z,1.10
2018-08-17T14:25:51.329Z,1.05
2018-08-17T14:28:20.460Z,1.35
2018-08-17T14:30:49.594Z,1.37
2018-08-17T14:33:18.736Z,1.25
2018-08-17T14:35:47.845Z,1.10
2018-08-17T14:38:34.086Z,1.05
2018-08-17T14:41:04.169Z,1.00
2018-08-17T14:43:33.630Z,1.55
2018-08-17T14:46:02.722Z,1.10
2018-08-17T14:48:31.903Z,1.25
2018-08-17T14:51:01.083Z,1.30
2018-08-17T14:53:30.323Z,1.40
2018-08-17T14:55:59.466Z,1.40
2018-08-17T14:58:28.559Z,1.20
2018-08-17T15:00:57.748Z,1.60
2018-08-17T15:03:26.779Z,1.47
2018-08-17T15:05:55.882Z,1.20
2018-08-17T15:08:25.232Z,1.42
2018-08-17T15:10:54.492Z,1.10
2018-08-17T15:13:23.624Z,1.20
2018-08-17T15:15:52.982Z,1.05
2018-08-17T15:18:22.265Z,1.12
2018-08-17T15:20:51.539Z,1.15
2018-08-17T15:23:22.415Z,1.85
2018-08-17T15:25:53.648Z,1.40
2018-08-17T15:28:24.488Z,1.00
2018-08-17T15:30:56.637Z,1.05
2018-08-17T15:33:28.799Z,1.10
2018-08-17T15:36:02.290Z,1.25
2018-08-17T15:38:31.942Z,1.30
2018-08-17T15:41:01.294Z,1.15
2018-08-17T15:43:30.543Z,1.12
2018-08-17T15:45:59.637Z,1.20
2018-08-17T15:48:29.642Z,1.05
2018-08-17T15:50:58.793Z,1.17
2018-08-17T15:53:30.144Z,1.25
2018-08-17T15:55:59.276Z,1.00
2018-08-17T15:58:28.448Z,1.25
2018-08-17T16:00:57.653Z,1.27
2018-08-17T16:03:26.681Z,1.20
2018-08-17T16:05:55.845Z,1.27
2018-08-17T16:08:28.789Z,1.10
2018-08-17T16:11:00.261Z,1.43
2018-08-17T16:13:30.710Z,1.50
2018-08-17T16:16:02.039Z,1.33
2018-08-17T16:18:32.881Z,0.90
2018-08-17T16:21:05.009Z,1.40
2018-08-17T16:23:40.361Z,1.10
2018-08-17T16:26:12.371Z,1.37
2018-08-17T16:28:42.954Z,1.27
2018-08-17T16:31:14.154Z,1.47
2018-08-17T16:33:44.918Z,1.70
2018-08-17T16:36:16.363Z,1.40
2018-08-17T16:38:45.594Z,1.40
2018-08-17T16:41:16.845Z,1.33
2018-08-17T16:43:49.660Z,1.20
2018-08-17T16:46:20.805Z,1.40
2018-08-17T16:48:49.981Z,1.27
2018-08-17T16:51:19.155Z,1.30
2018-08-17T16:53:48.271Z,1.23
2018-08-17T16:56:17.377Z,1.40
2018-08-17T16:58:46.396Z,1.70
2018-08-17T17:01:15.518Z,2.10
2018-08-17T17:03:44.716Z,1.50
2018-08-17T17:06:13.897Z,1.33
2018-08-17T17:08:42.969Z,1.50
2018-08-17T17:11:12.086Z,1.43
2018-08-17T17:13:42.647Z,1.30
2018-08-17T17:16:11.807Z,1.27
2018-08-17T17:18:40.930Z,1.03
2018-08-17T17:21:10.090Z,1.43
2018-08-17T17:23:52.242Z,1.10
2018-08-17T17:26:22.188Z,1.50
2018-08-17T17:28:58.247Z,1.57
2018-08-17T17:31:27.376Z,1.60
2018-08-17T17:33:56.693Z,1.50
2018-08-17T17:36:25.944Z,1.40
2018-08-17T17:38:55.165Z,1.37
2018-08-17T17:41:24.417Z,1.30
2018-08-17T17:43:53.565Z,1.47
2018-08-17T17:46:22.821Z,1.80
2018-08-17T17:48:52.211Z,1.73
2018-08-17T17:51:21.427Z,1.77
2018-08-17T17:53:51.297Z,1.60
2018-08-17T17:56:20.392Z,1.47
2018-08-17T17:58:49.620Z,1.73
2018-08-17T18:01:18.997Z,1.63
2018-08-17T18:03:48.107Z,1.87
2018-08-17T18:06:17.260Z,2.03
2018-08-17T18:08:46.481Z,1.67
2018-08-17T18:11:15.537Z,1.60
2018-08-17T18:13:45.663Z,1.50
2018-08-17T18:16:14.765Z,1.73
2018-08-17T18:18:43.953Z,1.60
2018-08-17T18:21:13.311Z,1.73
2018-08-17T18:23:42.420Z,1.70
2018-08-17T18:26:18.849Z,1.57
2018-08-17T18:28:48.001Z,1.60
2018-08-17T18:31:17.126Z,1.63
2018-08-17T18:33:46.244Z,1.50
2018-08-17T18:36:15.365Z,1.73
2018-08-17T18:38:44.559Z,1.70
2018-08-17T18:41:13.683Z,1.80
2018-08-17T18:43:42.802Z,1.60
2018-08-17T18:46:11.890Z,1.60
2018-08-17T18:48:41.737Z,1.60
2018-08-17T18:51:11.093Z,1.97
2018-08-17T18:53:40.311Z,1.70
2018-08-17T18:56:09.491Z,2.20
2018-08-17T18:58:38.662Z,1.73
2018-08-17T19:01:14.390Z,1.73
2018-08-17T19:03:43.507Z,1.93
2018-08-17T19:06:14.175Z,2.03
2018-08-17T19:08:43.399Z,2.20
2018-08-17T19:11:12.666Z,2.13
2018-08-17T19:13:41.861Z,2.30
2018-08-17T19:16:11.122Z,2.47
2018-08-17T19:18:40.340Z,2.17
2018-08-17T19:21:11.253Z,2.10
2018-08-17T19:23:40.450Z,2.17
2018-08-17T19:26:10.336Z,2.23
2018-08-17T19:28:39.643Z,2.77
2018-08-17T19:31:08.930Z,2.47
2018-08-17T19:33:38.088Z,2.37
2018-08-17T19:36:07.153Z,2.20
2018-08-17T19:38:40.920Z,2.03
2018-08-17T19:41:10.378Z,1.90
2018-08-17T19:43:40.019Z,2.10
2018-08-17T19:46:09.394Z,2.20
2018-08-17T19:48:38.527Z,2.40
2018-08-17T19:51:12.777Z,2.50
2018-08-17T19:53:41.933Z,2.70
2018-08-17T19:56:11.257Z,2.43
2018-08-17T19:58:40.728Z,2.60
2018-08-17T20:01:09.937Z,2.40
2018-08-17T20:03:39.141Z,2.23
2018-08-17T20:06:08.447Z,2.07
2018-08-17T20:08:37.544Z,2.20
2018-08-17T20:11:06.659Z,2.60
2018-08-17T20:13:35.911Z,2.77
2018-08-17T20:16:16.462Z,2.57
2018-08-17T20:18:45.958Z,2.63
2018-08-17T20:21:15.261Z,2.90
2018-08-17T20:23:44.442Z,2.77
2018-08-17T20:26:13.743Z,2.83
2018-08-17T20:28:42.917Z,2.50
2018-08-17T20:31:12.126Z,2.40
2018-08-17T20:33:41.212Z,2.80
2018-08-17T20:36:15.578Z,2.33
2018-08-17T20:38:44.696Z,2.50
2018-08-17T20:41:13.819Z,2.50
2018-08-17T20:43:43.121Z,2.80
2018-08-17T20:46:12.257Z,2.60
2018-08-17T20:48:50.421Z,2.53
2018-08-17T20:51:25.569Z,3.03
2018-08-17T20:53:56.318Z,2.57
2018-08-17T20:56:27.416Z,2.30
2018-08-17T20:58:58.426Z,2.33
2018-08-17T21:01:27.624Z,2.70
2018-08-17T21:03:56.735Z,3.17
2018-08-17T21:06:25.963Z,2.90
2018-08-17T21:08:55.067Z,2.67
2018-08-17T21:11:24.228Z,2.47
2018-08-17T21:13:53.376Z,2.50
2018-08-17T21:16:22.501Z,3.20
2018-08-17T21:18:51.757Z,2.60
2018-08-17T21:21:20.905Z,2.90
2018-08-17T21:23:49.980Z,2.90
2018-08-17T21:26:19.119Z,2.53
2018-08-17T21:28:48.255Z,2.77
2018-08-17T21:31:18.419Z,2.50
2018-08-17T21:33:47.539Z,2.50
2018-08-17T21:36:16.716Z,2.97
2018-08-17T21:38:57.418Z,2.93
2018-08-17T21:41:26.793Z,2.87
2018-08-17T21:43:55.939Z,3.13
2018-08-17T21:46:25.130Z,3.17
2018-08-17T21:48:54.283Z,3.33
2018-08-17T21:51:28.673Z,2.80
2018-08-17T21:53:58.119Z,3.20
2018-08-17T21:56:27.330Z,3.13
2018-08-17T21:58:56.477Z,3.50
2018-08-17T22:01:25.713Z,3.53
2018-08-17T22:03:54.978Z,3.23
2018-08-17T22:06:25.278Z,3.50
2018-08-17T22:08:54.386Z,3.37
2018-08-17T22:11:32.502Z,3.13
2018-08-17T22:14:01.629Z,3.17
2018-08-17T22:16:30.783Z,3.33
2018-08-17T22:18:59.917Z,3.30
2018-08-17T22:21:29.101Z,3.17
2018-08-17T22:23:58.231Z,3.47
2018-08-17T22:26:30.621Z,3.10
2018-08-17T22:29:00.002Z,3.80
2018-08-17T22:31:37.973Z,3.30
2018-08-17T22:34:07.751Z,3.60
2018-08-17T22:36:37.077Z,3.40
2018-08-17T22:39:07.572Z,3.57
2018-08-17T22:41:36.720Z,3.37
2018-08-17T22:44:09.948Z,3.43
2018-08-17T22:46:40.539Z,3.43
2018-08-17T22:49:10.105Z,3.40
2018-08-17T22:51:39.455Z,3.33
2018-08-17T22:54:08.706Z,3.33
2018-08-17T22:56:49.300Z,3.83
2018-08-17T22:59:18.689Z,3.57
2018-08-17T23:01:47.718Z,3.87
2018-08-17T23:04:16.871Z,3.40
2018-08-17T23:06:46.077Z,3.80
2018-08-17T23:09:15.177Z,3.50
2018-08-17T23:11:44.290Z,3.77
2018-08-17T23:14:14.859Z,3.40
2018-08-17T23:16:45.342Z,3.27
2018-08-17T23:19:14.418Z,3.93
2018-08-17T23:21:43.496Z,3.60
2018-08-17T23:24:12.684Z,3.80
2018-08-17T23:26:41.711Z,3.60
2018-08-17T23:29:10.878Z,3.70
2018-08-17T23:31:40.071Z,3.50
2018-08-17T23:34:09.149Z,3.83
2018-08-17T23:36:38.329Z,3.53
2018-08-17T23:39:10.019Z,3.40
2018-08-17T23:41:39.118Z,3.80
2018-08-17T23:44:08.241Z,3.60
2018-08-17T23:46:37.253Z,3.57
2018-08-17T23:49:06.327Z,3.67
2018-08-17T23:51:35.430Z,3.27
2018-08-17T23:54:04.529Z,3.37
2018-08-17T23:56:33.689Z,3.70
2018-08-17T23:59:02.841Z,3.37
